Airfield :
LOGIN :

Register | Disclaimer

   EN    FR    IT 

 










Legend :    VFR   Marginal VFR   IFR   Intensive IFR   Very Intensive IFR
Visi :
Ceiling :
>= 8 km
>= 3000ft
5 to 8 km
1000 to 3000 ft
1500m to 5 km
500 to 1000 ft
800 to 1500m
200 to 500 ft
< 800m
< 200 ft
Symbols :   Thunderstorms  Fog  Heavy snow  Heavy precipitations  Wind > 20 kt
SIGMETs :     Misc.  Thunderstorms  Icing  Turbulence  Mountain Waves  Volcanic Ashes







- Airport Elevation : 146 ft
- IATA code : RKE


EKRK - Roskilde Tune

CURRENT METAR :
  • 260250Z AUTO 34006KT 0700NDV R11/1200U R29/P1500N FG VV001 03/03 Q1025

EXPIRED METARs :
  • 260220Z AUTO 33006KT 1200NDV R11/P1500N R29/P1500N BR VV001 03/03 Q1025
  • 260150Z AUTO 34007KT 1800NDV BR OVC001/// 03/03 Q1025
  • 260120Z AUTO 34008KT 1100NDV R11/P1500D R29/P1500N BR BKN001/// OVC003/// 03/03 Q1025

TAF TAF EKRK
Valid from the 26 at 03:00 until the 26 at 12:00 UTC


260226Z 2603/2612 33006KT 3000 BR BKN005
TEMPO 2603/2608 0100 FG VV001
BECMG 2608/2610 9999 NSW SCT020
BECMG 2610/2612 27012KT
No reported NOTAMs for that airfield.



MET'MAP, your aeronautical weather chart ! - Copyright ORBIFLY December 2007 - Disclaimer

ORBIFLY MET'MAP TEAM :

Programming & Development : Alexandra Zaïnal
Concept & Development : Baudouin d'Aumeries
Co-Development & Prog : Marc-Olivier Méhu
Technical & hardware support : Manuel Goepfert

Contact : metmap@orbifly.com




SOURCES & CREDITS :

   NOAA